Time;durP1;ratioP1;P1;durP2;ratioP2;P2;SDS_P1;SDS_P2;PMS_P1;PMS_P2;Temp;Humidity;BMP_temperature;BMP_pressure;BME280_temperature;BME280_humidity;BME280_pressure;Samples;Min_cycle;Max_cycle;Signal;HPM_P1;HPM_P2
2023/08/17 00:02:06;;;;;;;3.65;2.22;;;;;;;14.95;87.17;101431.22;6027621;23;20037;-47
2023/08/17 00:04:33;;;;;;;3.70;1.65;;;;;;;14.94;87.36;101437.94;6054985;23;20045;-47
2023/08/17 00:06:59;;;;;;;3.00;1.95;;;;;;;14.93;87.26;101436.31;6032254;23;20025;-45
2023/08/17 00:09:26;;;;;;;4.82;1.92;;;;;;;14.93;87.31;101430.72;6039890;23;20391;-46
2023/08/17 00:11:53;;;;;;;5.40;1.33;;;;;;;14.92;87.49;101434.72;6031692;23;20048;-45
2023/08/17 00:14:20;;;;;;;2.45;1.45;;;;;;;14.94;87.32;101434.34;6038225;23;20044;-45
2023/08/17 00:16:49;;;;;;;1.73;1.30;;;;;;;14.92;87.75;101440.28;6025572;23;20155;-45
2023/08/17 00:19:16;;;;;;;2.97;1.50;;;;;;;14.88;87.37;101438.56;6041398;23;20033;-45
2023/08/17 00:21:45;;;;;;;2.80;1.63;;;;;;;14.88;87.54;101433.78;6035342;23;20059;-46
2023/08/17 00:24:11;;;;;;;2.78;1.38;;;;;;;14.84;87.74;101432.91;6036012;23;20036;-45
2023/08/17 00:26:38;;;;;;;4.18;1.77;;;;;;;14.83;87.70;101431.25;6041469;23;20541;-46
2023/08/17 00:29:05;;;;;;;1.75;1.35;;;;;;;14.81;87.81;101427.22;6014399;23;20818;-45
2023/08/17 00:31:32;;;;;;;3.85;1.40;;;;;;;14.79;87.79;101437.91;6044763;23;20033;-45
2023/08/17 00:33:59;;;;;;;3.78;2.15;;;;;;;14.78;87.94;101425.97;6043875;23;20064;-45
2023/08/17 00:36:25;;;;;;;3.53;1.27;;;;;;;14.75;87.93;101429.44;6023758;23;20051;-48
2023/08/17 00:38:52;;;;;;;2.95;1.52;;;;;;;14.72;87.82;101432.94;6024507;23;20033;-45
2023/08/17 00:41:19;;;;;;;5.60;1.45;;;;;;;14.70;87.99;101428.91;6033569;23;20080;-46
2023/08/17 00:43:46;;;;;;;2.40;1.75;;;;;;;14.69;88.03;101428.13;6035568;23;20075;-46
2023/08/17 00:46:14;;;;;;;4.18;1.90;;;;;;;14.69;87.88;101421.72;6034045;23;20457;-47
2023/08/17 00:48:42;;;;;;;3.58;1.60;;;;;;;14.65;88.11;101418.81;6033938;23;20039;-45
2023/08/17 00:51:09;;;;;;;2.22;1.30;;;;;;;14.64;88.15;101411.63;6033851;23;20033;-45
2023/08/17 00:53:36;;;;;;;1.10;1.00;;;;;;;14.62;88.29;101416.75;6030072;23;20452;-47
2023/08/17 00:56:05;;;;;;;3.67;1.27;;;;;;;14.63;88.18;101415.59;6034430;23;20037;-45
2023/08/17 00:58:32;;;;;;;3.80;1.30;;;;;;;14.64;88.35;101411.63;6056124;23;20083;-46
2023/08/17 01:01:02;;;;;;;2.55;0.98;;;;;;;14.62;88.12;101413.97;6033517;23;20079;-45
2023/08/17 01:03:32;;;;;;;5.82;1.83;;;;;;;14.59;88.43;101409.91;6033895;23;20029;-45
2023/08/17 01:05:59;;;;;;;1.98;1.45;;;;;;;14.57;88.21;101412.25;6033856;23;20029;-48
2023/08/17 01:08:26;;;;;;;6.30;2.45;;;;;;;14.56;88.24;101398.69;6036970;23;20028;-49
2023/08/17 01:11:05;;;;;;;2.10;1.27;;;;;;;14.53;88.47;101402.19;6029982;23;20040;-46
2023/08/17 01:13:53;;;;;;;3.63;1.45;;;;;;;14.51;88.56;101401.69;6042134;23;20426;-46
2023/08/17 01:16:29;;;;;;;1.48;1.10;;;;;;;14.47;88.54;101389.66;6038639;23;20061;-46
2023/08/17 01:18:58;;;;;;;1.83;1.10;;;;;;;14.45;88.50;101380.84;6039671;23;21058;-45
2023/08/17 01:21:35;;;;;;;5.00;1.10;;;;;;;14.44;88.58;101382.00;6038465;23;20483;-45
2023/08/17 01:24:04;;;;;;;1.95;1.38;;;;;;;14.42;88.49;101382.38;6033743;23;20479;-45
2023/08/17 01:26:31;;;;;;;5.07;1.60;;;;;;;14.41;88.50;101382.72;6034767;23;20029;-49
2023/08/17 01:28:58;;;;;;;1.95;1.15;;;;;;;14.39;88.57;101379.50;6038283;23;20074;-45
2023/08/17 01:31:32;;;;;;;4.80;1.75;;;;;;;14.39;88.62;101383.09;6041942;23;20033;-45
2023/08/17 01:34:07;;;;;;;5.97;1.52;;;;;;;14.38;88.90;101386.22;6044267;23;20043;-45
2023/08/17 01:36:46;;;;;;;3.55;1.90;;;;;;;14.36;88.78;101383.78;6013591;23;20100;-45
2023/08/17 01:39:16;;;;;;;2.45;1.83;;;;;;;14.35;88.82;101381.38;6030236;23;20032;-45
2023/08/17 01:41:45;;;;;;;5.30;1.90;;;;;;;14.35;89.03;101381.38;6033347;23;20037;-45
2023/08/17 01:44:12;;;;;;;5.18;3.38;;;;;;;14.32;89.07;101376.50;6028154;23;20033;-45
2023/08/17 01:46:39;;;;;;;2.33;2.08;;;;;;;14.30;89.25;101373.22;6031657;23;20483;-45
2023/08/17 01:49:06;;;;;;;3.70;1.90;;;;;;;14.29;89.47;101382.75;6033633;23;20499;-45
2023/08/17 01:51:33;;;;;;;4.15;2.90;;;;;;;14.30;89.55;101376.00;6056365;23;20037;-45
2023/08/17 01:54:00;;;;;;;3.15;2.25;;;;;;;14.30;89.53;101376.00;6033719;23;20071;-45
2023/08/17 01:56:26;;;;;;;3.58;2.15;;;;;;;14.30;89.77;101373.22;6028627;23;20030;-45
2023/08/17 01:58:53;;;;;;;4.30;2.20;;;;;;;14.28;89.98;101375.56;6028486;23;20698;-45
2023/08/17 02:01:20;;;;;;;3.58;2.10;;;;;;;14.28;89.92;101372.78;6019612;23;20067;-45
2023/08/17 02:03:47;;;;;;;5.68;2.42;;;;;;;14.27;90.09;101373.94;6032549;23;20038;-45
2023/08/17 02:06:13;;;;;;;5.28;2.53;;;;;;;14.28;90.26;101375.56;6032669;23;20041;-45
2023/08/17 02:08:41;;;;;;;3.47;2.63;;;;;;;14.26;90.33;101369.53;6035469;23;20033;-46
2023/08/17 02:11:09;;;;;;;7.32;3.28;;;;;;;14.25;90.30;101365.13;6057629;23;20043;-45
2023/08/17 02:13:37;;;;;;;5.07;2.83;;;;;;;14.23;90.54;101367.44;6044420;23;20356;-46
2023/08/17 02:16:07;;;;;;;4.43;2.08;;;;;;;14.23;90.74;101367.44;6043631;23;20040;-46
2023/08/17 02:18:34;;;;;;;6.07;2.50;;;;;;;14.23;90.73;101368.28;6029185;23;20032;-45
2023/08/17 02:21:02;;;;;;;4.03;1.95;;;;;;;14.22;90.77;101363.03;6037069;23;20392;-48
2023/08/17 02:23:28;;;;;;;3.97;2.83;;;;;;;14.22;90.86;101368.59;6038186;23;20495;-47
2023/08/17 02:25:55;;;;;;;3.67;2.38;;;;;;;14.21;91.06;101367.00;6044835;23;20071;-45
2023/08/17 02:28:22;;;;;;;6.63;2.40;;;;;;;14.20;91.09;101362.59;6039490;23;20036;-45
2023/08/17 02:30:55;;;;;;;6.10;2.30;;;;;;;14.18;91.13;101367.72;6038218;23;20033;-46
2023/08/17 02:33:22;;;;;;;6.97;2.80;;;;;;;14.18;91.56;101367.72;6032605;23;20078;-45
2023/08/17 02:35:50;;;;;;;2.85;2.38;;;;;;;14.17;91.54;101357.72;6047970;23;20036;-46
2023/08/17 02:38:16;;;;;;;3.35;2.40;;;;;;;14.16;91.77;101361.69;6037062;23;20029;-45
2023/08/17 02:40:43;;;;;;;10.05;3.38;;;;;;;14.14;91.83;101359.25;6028039;23;20501;-46
2023/08/17 02:43:10;;;;;;;4.93;3.03;;;;;;;14.13;92.01;101362.41;6036177;23;20103;-45
2023/08/17 02:45:37;;;;;;;4.45;2.80;;;;;;;14.13;91.87;101362.41;6038559;23;20029;-46
2023/08/17 02:48:04;;;;;;;5.63;3.05;;;;;;;14.11;92.17;101364.72;6037639;23;20045;-45
2023/08/17 02:50:31;;;;;;;3.53;2.83;;;;;;;14.10;92.33;101357.53;6052231;23;20135;-45
2023/08/17 02:52:59;;;;;;;6.75;3.72;;;;;;;14.09;92.34;101351.16;6031562;23;20033;-45
2023/08/17 02:55:26;;;;;;;5.20;3.00;;;;;;;14.09;92.37;101355.91;6033220;23;20044;-45
2023/08/17 02:57:53;;;;;;;6.05;3.67;;;;;;;14.07;92.51;101353.47;6053437;23;20036;-44
2023/08/17 03:02:55;;;;;;;5.10;2.40;;;;;;;14.06;92.74;101346.28;4954142;22;20064;-49
2023/08/17 03:05:22;;;;;;;4.65;2.90;;;;;;;14.05;92.73;101339.13;5009211;28;20069;-45
2023/08/17 03:07:50;;;;;;;9.52;3.08;;;;;;;14.02;92.85;101337.84;5009172;28;20056;-44
2023/08/17 03:10:17;;;;;;;4.35;2.47;;;;;;;14.03;93.19;101331.09;5011616;28;20472;-47
2023/08/17 03:12:44;;;;;;;3.25;2.67;;;;;;;14.02;93.26;101329.50;5011484;28;20136;-44
2023/08/17 03:15:11;;;;;;;3.35;2.78;;;;;;;14.02;93.36;101326.72;5011354;28;20531;-44
2023/08/17 03:17:38;;;;;;;4.82;2.80;;;;;;;14.03;93.56;101331.09;5011542;28;20057;-45
2023/08/17 03:20:07;;;;;;;4.97;2.95;;;;;;;14.03;93.94;101313.59;5011238;28;20054;-45
2023/08/17 03:22:34;;;;;;;6.32;2.95;;;;;;;14.02;93.92;101312.78;5011269;28;20045;-47
2023/08/17 03:25:02;;;;;;;8.90;4.38;;;;;;;14.01;94.18;101305.59;5011209;28;20046;-45
2023/08/17 03:27:29;;;;;;;7.10;2.85;;;;;;;14.00;94.40;101303.97;5011046;28;20084;-44
2023/08/17 03:29:56;;;;;;;4.68;2.97;;;;;;;13.99;94.84;101310.72;5010923;28;20491;-44
2023/08/17 03:32:23;;;;;;;6.57;3.00;;;;;;;13.99;94.95;101310.72;5011280;28;20129;-45
2023/08/17 03:34:50;;;;;;;3.67;2.65;;;;;;;14.02;95.03;101307.22;5009912;28;20495;-45
2023/08/17 03:37:17;;;;;;;8.55;2.53;;;;;;;14.02;95.23;101301.66;5011295;28;20077;-44
2023/08/17 03:39:44;;;;;;;2.35;2.00;;;;;;;14.05;95.33;101305.69;5007842;28;20038;-44
2023/08/17 03:42:11;;;;;;;4.97;2.42;;;;;;;14.06;95.55;101309.31;5010759;28;20056;-45
2023/08/17 03:44:38;;;;;;;5.57;2.33;;;;;;;14.08;95.68;101295.81;5008356;28;20060;-44
2023/08/17 03:47:05;;;;;;;4.47;2.60;;;;;;;14.08;95.75;101301.41;5009924;28;20152;-46
2023/08/17 03:49:31;;;;;;;6.57;2.70;;;;;;;14.08;95.88;101295.81;5011159;28;20042;-43
2023/08/17 03:51:58;;;;;;;6.95;2.35;;;;;;;14.07;95.96;101303.38;5014582;28;20057;-44
2023/08/17 03:54:25;;;;;;;5.43;2.00;;;;;;;14.06;96.19;101289.81;5012114;28;20132;-48
2023/08/17 03:56:52;;;;;;;4.75;2.40;;;;;;;14.03;96.34;101286.56;5013522;28;20501;-44
2023/08/17 03:59:19;;;;;;;3.42;2.50;;;;;;;14.03;96.22;101292.13;5011160;28;20050;-47
2023/08/17 04:01:46;;;;;;;2.67;2.38;;;;;;;14.02;96.27;101286.91;5014521;28;20060;-43
2023/08/17 04:04:13;;;;;;;3.88;3.08;;;;;;;14.01;96.37;101293.63;5011751;28;20137;-44
2023/08/17 04:06:40;;;;;;;4.65;2.28;;;;;;;13.97;96.25;101299.13;5012591;28;20045;-43
2023/08/17 04:09:07;;;;;;;3.25;2.30;;;;;;;13.97;96.54;101304.69;5012334;28;20061;-45
2023/08/17 04:11:37;;;;;;;3.75;2.58;;;;;;;13.96;96.22;101305.84;5011998;28;20050;-44
2023/08/17 04:14:04;;;;;;;5.53;2.72;;;;;;;13.93;96.20;101295.41;5013806;28;20046;-46
2023/08/17 04:16:33;;;;;;;10.48;2.97;;;;;;;13.91;96.28;101300.53;5014294;28;20133;-44
2023/08/17 04:19:00;;;;;;;4.65;2.78;;;;;;;13.87;96.53;101299.59;5010890;28;20053;-44
2023/08/17 04:21:27;;;;;;;4.13;2.25;;;;;;;13.84;96.34;101294.78;5012340;28;20069;-44
2023/08/17 04:23:55;;;;;;;5.53;1.90;;;;;;;13.80;96.42;101296.63;5012642;28;20050;-46
2023/08/17 04:26:23;;;;;;;7.82;2.28;;;;;;;13.76;96.84;101295.72;5011842;28;20104;-47
2023/08/17 04:28:50;;;;;;;7.32;2.67;;;;;;;13.76;96.79;101295.72;5013713;28;20053;-46
2023/08/17 04:31:17;;;;;;;4.20;2.45;;;;;;;13.74;97.20;101289.69;5012278;28;20065;-46
2023/08/17 04:33:44;;;;;;;13.60;4.13;;;;;;;13.76;97.42;101287.38;5011954;28;20077;-45
2023/08/17 04:36:11;;;;;;;6.50;2.35;;;;;;;13.76;97.46;101284.59;5010455;28;20054;-44
2023/08/17 04:38:37;;;;;;;7.80;2.60;;;;;;;13.77;97.75;101282.59;5003690;28;20452;-44
2023/08/17 04:41:04;;;;;;;5.28;3.05;;;;;;;13.78;97.95;101278.66;5012575;28;20406;-44
2023/08/17 04:43:31;;;;;;;7.30;2.20;;;;;;;13.79;98.00;101278.31;5011137;28;20044;-44
2023/08/17 04:45:58;;;;;;;10.40;3.30;;;;;;;13.79;98.37;101280.31;5011687;28;20042;-44
2023/08/17 04:48:25;;;;;;;5.10;2.38;;;;;;;13.79;98.24;101277.50;5013094;28;20578;-43
2023/08/17 04:50:52;;;;;;;5.80;1.98;;;;;;;13.78;98.60;101279.47;5018260;28;20674;-44
2023/08/17 04:53:19;;;;;;;8.43;2.63;;;;;;;13.80;98.55;101271.59;5016576;28;20034;-44
2023/08/17 04:55:46;;;;;;;3.90;2.25;;;;;;;13.82;98.66;101277.59;5013299;28;20072;-43
2023/08/17 04:58:12;;;;;;;4.55;2.13;;;;;;;13.80;98.75;101277.16;5012956;28;20049;-44
2023/08/17 05:00:39;;;;;;;2.85;2.00;;;;;;;13.80;98.68;101271.59;5011729;28;20081;-44
2023/08/17 05:03:06;;;;;;;5.13;1.95;;;;;;;13.79;98.84;101258.81;5011393;28;20488;-44
2023/08/17 05:05:42;;;;;;;4.47;2.42;;;;;;;13.78;98.66;101264.75;5007661;28;20038;-44
2023/08/17 05:08:09;;;;;;;9.75;2.67;;;;;;;13.77;98.90;101260.34;5015807;28;20128;-44
2023/08/17 05:10:36;;;;;;;10.98;3.15;;;;;;;13.77;99.01;101254.78;5013880;28;20500;-48
2023/08/17 05:13:03;;;;;;;8.07;2.42;;;;;;;13.77;99.10;101247.25;5012337;28;20057;-46
2023/08/17 05:15:30;;;;;;;3.72;2.28;;;;;;;13.77;99.09;101250.03;5012726;28;20518;-43
2023/08/17 05:17:57;;;;;;;4.25;2.20;;;;;;;13.77;99.25;101236.09;5008959;28;20430;-45
2023/08/17 05:20:24;;;;;;;7.22;2.88;;;;;;;13.76;99.31;101237.28;5013766;28;20077;-45
2023/08/17 05:22:50;;;;;;;5.65;2.00;;;;;;;13.76;99.59;101237.28;5004981;28;20034;-43
2023/08/17 05:25:17;;;;;;;5.40;2.20;;;;;;;13.78;99.57;101234.94;5013722;28;20115;-44
2023/08/17 05:27:48;;;;;;;6.95;2.60;;;;;;;13.78;99.40;101237.75;5011773;28;20076;-44
2023/08/17 05:30:16;;;;;;;4.63;2.53;;;;;;;13.78;99.69;101246.09;4996323;28;20065;-45
2023/08/17 05:32:43;;;;;;;4.38;2.25;;;;;;;13.78;99.85;101240.53;5011728;28;20138;-43
2023/08/17 05:35:11;;;;;;;8.30;2.85;;;;;;;13.81;99.89;101239.81;5009168;28;20112;-44
2023/08/17 05:37:38;;;;;;;7.07;3.22;;;;;;;13.87;100.00;101241.16;5009189;28;20408;-43
2023/08/17 05:40:05;;;;;;;5.60;3.05;;;;;;;13.92;100.00;101243.72;5005937;28;20507;-43
2023/08/17 05:42:32;;;;;;;9.77;2.55;;;;;;;13.94;100.00;101238.59;5009564;28;20080;-45
2023/08/17 05:44:59;;;;;;;4.53;2.72;;;;;;;14.00;100.00;101239.16;5011919;28;20041;-44
2023/08/17 05:47:28;;;;;;;8.57;2.75;;;;;;;14.06;100.00;101234.13;4997880;28;20476;-46
2023/08/17 05:49:55;;;;;;;11.93;3.10;;;;;;;14.10;100.00;101235.84;5009294;28;20049;-44
2023/08/17 05:52:22;;;;;;;7.35;2.90;;;;;;;14.15;100.00;101234.75;5010003;28;20054;-44
2023/08/17 05:54:49;;;;;;;7.70;2.83;;;;;;;14.19;100.00;101238.47;5011132;28;20050;-46
2023/08/17 05:57:16;;;;;;;7.05;2.67;;;;;;;14.23;100.00;101229.03;5010999;28;20149;-47
2023/08/17 05:59:43;;;;;;;7.97;1.80;;;;;;;14.29;100.00;101229.56;5010762;28;20363;-44
2023/08/17 06:02:10;;;;;;;5.70;1.85;;;;;;;14.34;100.00;101224.56;4996691;28;20054;-44
2023/08/17 06:04:37;;;;;;;8.52;2.55;;;;;;;14.40;100.00;101233.47;5010365;28;20189;-44
2023/08/17 06:07:04;;;;;;;6.15;1.88;;;;;;;14.44;100.00;101229.59;5010251;28;20060;-44
2023/08/17 06:09:30;;;;;;;14.27;2.00;;;;;;;14.51;100.00;101237.31;5010799;28;20056;-46
2023/08/17 06:11:57;;;;;;;7.47;1.80;;;;;;;14.55;100.00;101235.44;5009830;28;20052;-44
2023/08/17 06:14:24;;;;;;;10.52;2.20;;;;;;;14.60;100.00;101224.03;5010669;28;20562;-44
2023/08/17 06:16:51;;;;;;;7.30;1.63;;;;;;;14.65;100.00;101229.31;5009901;28;20061;-45
2023/08/17 06:19:18;;;;;;;6.95;2.00;;;;;;;14.71;100.00;101227.06;5009670;28;20172;-44
2023/08/17 06:21:45;;;;;;;3.95;1.92;;;;;;;14.75;100.00;101222.38;5011324;28;20046;-44
2023/08/17 06:24:12;;;;;;;9.52;2.20;;;;;;;14.79;100.00;101221.31;5009222;28;20046;-45
2023/08/17 06:26:39;;;;;;;4.78;2.22;;;;;;;14.84;100.00;101226.59;5008433;28;20431;-46
2023/08/17 06:29:06;;;;;;;9.80;2.05;;;;;;;14.88;100.00;101221.91;4997423;28;20050;-45
2023/08/17 06:31:33;;;;;;;4.30;2.35;;;;;;;14.92;100.00;101220.03;4995222;28;20042;-44
2023/08/17 06:34:00;;;;;;;5.43;1.75;;;;;;;14.96;100.00;101218.09;5010998;28;20089;-45
2023/08/17 06:36:32;;;;;;;4.38;1.92;;;;;;;15.01;100.00;101212.25;5007569;28;20048;-44
2023/08/17 06:38:59;;;;;;;7.32;2.03;;;;;;;15.06;100.00;101208.38;5008365;28;20124;-44
2023/08/17 06:41:26;;;;;;;5.82;1.80;;;;;;;15.11;100.00;101203.34;5010036;28;20073;-47
2023/08/17 06:43:53;;;;;;;4.18;1.95;;;;;;;15.19;100.00;101207.91;5001769;28;20615;-44
2023/08/17 06:46:20;;;;;;;6.18;1.35;;;;;;;15.23;100.00;101214.34;5009633;28;20050;-44
2023/08/17 06:48:48;;;;;;;9.20;3.25;;;;;;;15.29;100.00;101208.47;5010477;28;20484;-44
2023/08/17 06:51:15;;;;;;;2.22;1.25;;;;;;;15.34;100.00;101208.19;5010958;28;20519;-49
2023/08/17 06:53:42;;;;;;;6.05;1.33;;;;;;;15.38;100.00;101214.66;5009244;28;20105;-44
2023/08/17 06:56:09;;;;;;;4.55;1.20;;;;;;;15.40;100.00;101204.75;5011570;28;20050;-45
2023/08/17 06:58:36;;;;;;;6.10;1.67;;;;;;;15.44;100.00;101205.63;5010766;28;20054;-44
2023/08/17 07:01:03;;;;;;;5.97;1.30;;;;;;;15.49;100.00;101207.38;5010720;28;20064;-44
2023/08/17 07:03:30;;;;;;;6.65;1.73;;;;;;;15.51;100.00;101210.59;5009846;28;20034;-44
2023/08/17 07:05:57;;;;;;;5.55;1.45;;;;;;;15.55;100.00;101197.50;5009169;28;20053;-45
2023/08/17 07:08:24;;;;;;;7.63;1.55;;;;;;;15.58;100.00;101194.78;5008515;28;20057;-46
2023/08/17 07:10:51;;;;;;;4.07;1.30;;;;;;;15.62;100.00;101192.88;5009556;28;20050;-44
2023/08/17 07:13:18;;;;;;;5.15;1.30;;;;;;;15.67;100.00;101187.00;5006232;28;20042;-44
2023/08/17 07:15:44;;;;;;;4.60;1.60;;;;;;;15.76;100.00;101183.97;5008889;28;20046;-44
2023/08/17 07:18:11;;;;;;;5.47;1.60;;;;;;;15.83;100.00;101182.13;5007277;28;20063;-45
2023/08/17 07:20:38;;;;;;;5.78;1.10;;;;;;;15.91;100.00;101183.09;5009141;28;20557;-43
2023/08/17 07:23:05;;;;;;;5.57;1.50;;;;;;;15.98;100.00;101180.41;5008876;28;20057;-46
2023/08/17 07:25:32;;;;;;;2.53;1.20;;;;;;;16.07;100.00;101180.19;5010292;28;20049;-44
2023/08/17 07:27:59;;;;;;;5.22;1.40;;;;;;;16.15;100.00;101179.91;5010145;28;20092;-44
2023/08/17 07:30:26;;;;;;;2.58;0.98;;;;;;;16.22;100.00;101184.81;5008379;28;20045;-43
2023/08/17 07:32:54;;;;;;;4.43;1.17;;;;;;;16.30;100.00;101192.16;5007709;28;20131;-46
2023/08/17 07:35:21;;;;;;;8.23;1.63;;;;;;;16.34;100.00;101196.63;5016584;28;20045;-43
2023/08/17 07:37:48;;;;;;;4.00;1.20;;;;;;;16.34;100.00;101188.22;4996417;28;20038;-45
2023/08/17 07:40:33;;;;;;;5.20;2.45;;;;;;;16.34;100.00;101198.59;5009520;28;20049;-44
2023/08/17 07:43:01;;;;;;;4.28;1.48;;;;;;;16.37;100.00;101187.50;4997638;28;20077;-44
2023/08/17 07:45:28;;;;;;;4.28;1.50;;;;;;;16.42;100.00;101189.97;4994693;28;20056;-45
2023/08/17 07:47:55;;;;;;;2.42;1.20;;;;;;;16.44;100.00;101187.59;5008773;28;20050;-44
2023/08/17 07:50:22;;;;;;;4.25;1.30;;;;;;;16.44;100.00;101170.81;5008929;28;20054;-44
2023/08/17 07:52:49;;;;;;;2.10;0.90;;;;;;;16.42;100.00;101173.19;5011238;28;20050;-44
2023/08/17 07:55:16;;;;;;;4.20;1.17;;;;;;;16.46;100.00;101167.69;5009721;28;20093;-46
2023/08/17 07:57:43;;;;;;;3.28;1.40;;;;;;;16.50;100.00;101178.91;5011672;28;20057;-45
2023/08/17 08:00:10;;;;;;;5.75;1.40;;;;;;;16.52;100.00;101171.75;5010771;28;20554;-49
2023/08/17 08:02:37;;;;;;;6.47;2.03;;;;;;;16.57;100.00;101165.09;5010949;28;20392;-44
2023/08/17 08:05:04;;;;;;;4.90;1.45;;;;;;;16.63;100.00;101166.34;5010840;28;20096;-44
2023/08/17 08:07:32;;;;;;;3.97;1.30;;;;;;;16.73;100.00;101165.72;5011290;28;20046;-45
2023/08/17 08:09:58;;;;;;;5.25;1.30;;;;;;;16.86;100.00;101172.72;5010707;28;20049;-45
2023/08/17 08:12:25;;;;;;;1.15;0.90;;;;;;;17.00;100.00;101170.91;5009777;28;20042;-45
2023/08/17 08:14:52;;;;;;;1.63;1.25;;;;;;;17.20;100.00;101168.00;5010649;28;20129;-45
2023/08/17 08:17:19;;;;;;;6.28;1.00;;;;;;;17.40;100.00;101163.84;5010963;28;20056;-45
2023/08/17 08:19:46;;;;;;;8.43;1.48;;;;;;;17.62;100.00;101162.94;5010922;28;20153;-45
2023/08/17 08:22:13;;;;;;;1.60;1.10;;;;;;;17.89;100.00;101156.06;5009092;28;20101;-45
2023/08/17 08:24:41;;;;;;;3.25;1.10;;;;;;;18.16;100.00;101154.69;5007271;28;20792;-45
2023/08/17 08:27:10;;;;;;;3.28;1.10;;;;;;;18.47;100.00;101156.19;5010958;28;20054;-45
2023/08/17 08:29:37;;;;;;;3.78;1.33;;;;;;;18.66;100.00;101155.94;5010827;28;20064;-45
2023/08/17 08:32:04;;;;;;;4.03;1.08;;;;;;;18.99;100.00;101156.94;5011792;28;20516;-45
2023/08/17 08:34:31;;;;;;;9.23;1.48;;;;;;;19.66;100.00;101162.88;5012298;28;20042;-47
2023/08/17 08:36:58;;;;;;;7.20;1.20;;;;;;;20.65;100.00;101166.63;5004255;28;20137;-46
2023/08/17 08:39:26;;;;;;;2.25;0.90;;;;;;;21.67;100.00;101162.72;5011528;28;20145;-42
2023/08/17 08:41:53;;;;;;;3.42;1.20;;;;;;;22.50;97.73;101170.22;5013090;28;20042;-43
2023/08/17 08:44:21;;;;;;;1.90;0.80;;;;;;;23.30;92.26;101162.94;5011887;28;20385;-43
2023/08/17 08:46:49;;;;;;;2.17;0.80;;;;;;;23.95;86.15;101169.41;5014103;28;20184;-43
2023/08/17 08:49:23;;;;;;;3.05;0.90;;;;;;;24.51;83.28;101184.72;5014591;28;20042;-43
2023/08/17 08:51:52;;;;;;;2.25;0.80;;;;;;;25.05;77.61;101185.38;5014207;28;20072;-44
2023/08/17 08:54:25;;;;;;;7.25;0.90;;;;;;;25.49;75.42;101186.97;5014044;28;20046;-43
2023/08/17 08:56:59;;;;;;;4.57;1.00;;;;;;;25.86;71.69;101187.38;5014107;28;20046;-45
2023/08/17 08:59:28;;;;;;;2.47;0.60;;;;;;;26.21;67.94;101180.09;5013990;28;20096;-43
2023/08/17 09:01:58;;;;;;;1.80;0.85;;;;;;;26.51;66.32;101179.75;5013645;28;20396;-43
2023/08/17 09:04:26;;;;;;;2.40;0.95;;;;;;;26.67;63.54;101180.97;5013979;28;20042;-43
2023/08/17 09:06:54;;;;;;;2.60;1.10;;;;;;;26.85;61.48;101181.34;5014370;28;20064;-45
2023/08/17 09:09:22;;;;;;;2.50;0.77;;;;;;;26.95;60.29;101186.75;5013955;28;20069;-43
2023/08/17 09:11:56;;;;;;;2.72;0.75;;;;;;;27.09;58.56;101189.22;5012318;28;20053;-43
2023/08/17 09:14:23;;;;;;;5.25;1.17;;;;;;;27.17;57.83;101186.97;5013817;28;20399;-43
2023/08/17 09:16:49;;;;;;;4.15;0.75;;;;;;;27.18;56.86;101200.75;5013147;28;20053;-44
2023/08/17 09:19:18;;;;;;;5.70;1.10;;;;;;;27.26;55.76;101189.97;5014060;28;20136;-43
2023/08/17 09:21:45;;;;;;;2.88;1.33;;;;;;;27.46;55.11;101179.25;5013280;28;20449;-43
2023/08/17 09:24:16;;;;;;;2.83;0.90;;;;;;;27.56;54.49;101180.97;5011473;28;20056;-44
2023/08/17 09:26:43;;;;;;;5.05;0.98;;;;;;;27.63;53.29;101169.41;5013391;28;20068;-44
2023/08/17 09:29:18;;;;;;;3.13;0.85;;;;;;;27.65;53.87;101158.38;5013807;28;20103;-43
2023/08/17 09:31:46;;;;;;;3.63;1.10;;;;;;;27.81;52.66;101160.31;5013252;28;20048;-43
2023/08/17 09:34:15;;;;;;;3.80;0.98;;;;;;;28.04;51.94;101156.41;5013201;28;20177;-45
2023/08/17 09:36:45;;;;;;;3.97;0.80;;;;;;;28.29;50.82;101162.06;4996069;28;20050;-46
2023/08/17 09:39:12;;;;;;;3.13;1.55;;;;;;;28.36;49.89;101162.63;5013351;28;20045;-43
2023/08/17 09:41:41;;;;;;;3.22;1.05;;;;;;;28.21;49.24;101152.97;5022983;28;20042;-43
2023/08/17 09:44:11;;;;;;;2.53;1.02;;;;;;;27.80;49.46;101142.44;5012929;28;20138;-43
2023/08/17 09:46:38;;;;;;;4.38;0.98;;;;;;;27.15;50.38;101139.09;5012407;28;20052;-43
2023/08/17 09:49:05;;;;;;;1.80;1.02;;;;;;;27.02;50.75;101141.09;5013210;28;20396;-44
2023/08/17 09:51:32;;;;;;;5.32;1.05;;;;;;;27.25;50.04;101139.22;5013048;28;20065;-48
2023/08/17 09:53:59;;;;;;;3.38;1.20;;;;;;;27.52;49.26;101134.78;5011445;28;20168;-48
2023/08/17 09:56:27;;;;;;;5.28;1.30;;;;;;;27.51;48.72;101123.88;5013408;28;20057;-44
2023/08/17 09:58:55;;;;;;;3.05;1.00;;;;;;;27.04;49.03;101135.75;5012783;28;20061;-46
2023/08/17 10:01:22;;;;;;;3.28;0.98;;;;;;;26.67;49.62;101130.66;5008167;28;20398;-48
2023/08/17 10:03:50;;;;;;;2.97;1.67;;;;;;;26.65;49.52;101127.47;4992894;28;20058;-45
2023/08/17 10:06:22;;;;;;;3.28;1.35;;;;;;;26.76;49.38;101128.00;4993208;28;20043;-43
2023/08/17 10:08:56;;;;;;;5.03;1.48;;;;;;;26.94;48.74;101128.31;4992856;28;20046;-43
2023/08/17 10:11:30;;;;;;;3.67;1.30;;;;;;;26.71;48.44;101124.91;4992202;28;20546;-44
2023/08/17 10:14:06;;;;;;;6.18;2.10;;;;;;;25.98;49.41;101132.78;4992542;28;20065;-45
2023/08/17 10:17:12;;;;;;;4.15;1.90;;;;;;;25.24;50.93;101113.75;4992913;28;20060;-43
2023/08/17 10:19:58;;;;;;;2.30;1.52;;;;;;;25.52;50.35;101104.69;4991060;28;20061;-44
2023/08/17 10:22:33;;;;;;;2.78;1.60;;;;;;;25.81;50.16;101114.16;4990715;28;20046;-44
2023/08/17 10:25:01;;;;;;;2.92;1.63;;;;;;;26.18;49.67;101109.22;4992505;28;20042;-44
2023/08/17 10:27:29;;;;;;;3.75;2.00;;;;;;;26.44;48.92;101113.84;4992785;28;20078;-43
2023/08/17 10:29:56;;;;;;;3.95;1.70;;;;;;;26.47;48.92;101110.91;4991218;28;20056;-44
2023/08/17 10:32:24;;;;;;;5.78;2.35;;;;;;;26.27;49.47;101103.72;4993416;28;20045;-50
2023/08/17 10:34:52;;;;;;;6.57;1.95;;;;;;;26.05;49.93;101108.31;4992715;28;20092;-43
2023/08/17 10:37:20;;;;;;;2.25;1.42;;;;;;;25.70;50.35;101090.09;4992568;28;20043;-47
2023/08/17 10:39:49;;;;;;;3.47;1.92;;;;;;;25.23;50.80;101095.16;4992573;28;20042;-43
2023/08/17 10:42:30;;;;;;;3.20;1.70;;;;;;;24.72;51.92;101097.38;4991034;28;20038;-44
2023/08/17 10:44:57;;;;;;;4.50;1.90;;;;;;;24.26;52.62;101103.06;4992655;28;20042;-44
2023/08/17 10:47:26;;;;;;;3.50;1.73;;;;;;;23.81;54.17;101090.41;4993040;28;20042;-45
2023/08/17 10:49:59;;;;;;;4.82;1.80;;;;;;;23.62;54.76;101100.38;4992372;28;20163;-45
2023/08/17 10:52:31;;;;;;;4.07;1.85;;;;;;;23.62;55.45;101092.72;4991342;28;20046;-43
2023/08/17 10:55:07;;;;;;;4.00;1.88;;;;;;;23.91;54.77;101090.25;4991693;28;20050;-45
2023/08/17 10:57:39;;;;;;;4.22;1.90;;;;;;;23.74;55.41;101090.53;4991231;28;20502;-47
2023/08/17 11:00:24;;;;;;;4.32;1.73;;;;;;;23.49;56.08;101088.88;4992075;28;20531;-46
2023/08/17 11:02:59;;;;;;;4.25;2.10;;;;;;;23.28;56.66;101082.66;5010089;28;20060;-45
2023/08/17 11:05:46;;;;;;;6.93;2.65;;;;;;;23.20;57.41;101073.50;5011940;28;20034;-43
2023/08/17 11:08:33;;;;;;;4.07;2.00;;;;;;;23.13;57.70;101076.41;5011503;28;20085;-45
2023/08/17 11:11:11;;;;;;;3.53;1.67;;;;;;;23.04;58.13;101084.59;5010514;28;20404;-46
2023/08/17 11:13:45;;;;;;;3.58;2.15;;;;;;;22.91;58.48;101083.53;5011479;28;20038;-43
2023/08/17 11:16:14;;;;;;;4.30;2.30;;;;;;;22.71;59.15;101085.38;5011565;28;20045;-45
2023/08/17 11:18:44;;;;;;;;;;;;;;;22.41;59.73;101084.03;5010194;28;20415;-43
2023/08/17 11:21:11;;;;;;;5.97;2.88;;;;;;;22.30;60.22;101086.16;5010459;28;19921;-43
2023/08/17 11:23:38;;;;;;;4.28;1.90;;;;;;;22.25;60.75;101080.97;5006636;28;20056;-44
2023/08/17 11:26:05;;;;;;;5.90;2.20;;;;;;;22.31;60.92;101084.94;5011283;28;20054;-44
2023/08/17 11:28:36;;;;;;;4.82;1.77;;;;;;;22.43;60.93;101081.59;5011237;28;20488;-45
2023/08/17 11:31:13;;;;;;;7.70;2.20;;;;;;;22.42;61.14;101079.22;5011278;28;20073;-44
2023/08/17 11:33:40;;;;;;;3.03;1.63;;;;;;;22.42;61.52;101090.50;5011545;28;20048;-43